createdAt,value
2018-10-01T00:01:53.708Z,7.37
2018-10-01T00:04:58.794Z,7.34
2018-10-01T00:08:04.011Z,7.26
2018-10-01T00:11:09.008Z,7.25
2018-10-01T00:14:14.790Z,7.17
2018-10-01T00:17:19.826Z,7.18
2018-10-01T00:20:31.305Z,7.20
2018-10-01T00:23:36.600Z,7.16
2018-10-01T00:26:41.613Z,7.15
2018-10-01T00:29:46.628Z,7.08
2018-10-01T00:32:52.372Z,6.96
2018-10-01T00:35:58.332Z,7.00
2018-10-01T00:39:05.647Z,7.03
2018-10-01T00:42:10.677Z,6.93
2018-10-01T00:45:15.751Z,6.98
2018-10-01T00:48:20.814Z,6.97
2018-10-01T00:51:26.997Z,6.95
2018-10-01T00:54:32.038Z,6.90
2018-10-01T00:57:37.061Z,6.90
2018-10-01T01:00:42.085Z,6.89
2018-10-01T01:03:47.077Z,6.80
2018-10-01T01:06:52.162Z,6.83
2018-10-01T01:09:57.902Z,6.88
2018-10-01T01:13:04.977Z,6.87
2018-10-01T01:16:10.767Z,6.85
2018-10-01T01:19:16.490Z,6.81
2018-10-01T01:22:21.560Z,6.83
2018-10-01T01:25:26.585Z,6.87
2018-10-01T01:28:32.649Z,6.85
2018-10-01T01:31:37.687Z,6.81
2018-10-01T01:34:42.726Z,6.82
2018-10-01T01:37:47.794Z,6.85
2018-10-01T01:40:53.502Z,6.83
2018-10-01T01:43:58.510Z,6.83
2018-10-01T01:47:03.569Z,6.79
2018-10-01T01:50:09.415Z,6.74
2018-10-01T01:53:16.219Z,6.68
2018-10-01T01:56:21.316Z,6.67
2018-10-01T01:59:26.397Z,6.70
2018-10-01T02:02:31.506Z,6.74
2018-10-01T02:05:36.563Z,6.80
2018-10-01T02:08:41.605Z,6.82
2018-10-01T02:11:47.377Z,6.82
2018-10-01T02:14:52.938Z,6.90
2018-10-01T02:17:57.961Z,6.92
2018-10-01T02:21:04.626Z,6.91
2018-10-01T02:24:09.659Z,6.90
2018-10-01T02:27:14.818Z,6.92
2018-10-01T02:33:55.381Z,6.87
2018-10-01T02:37:00.378Z,6.93
2018-10-01T02:40:05.412Z,6.99
2018-10-01T02:43:10.540Z,7.02
2018-10-01T02:46:15.546Z,7.03
2018-10-01T02:49:20.578Z,7.10
2018-10-01T02:52:31.432Z,7.17
2018-10-01T02:55:36.473Z,7.22
2018-10-01T02:58:42.346Z,7.20
2018-10-01T03:01:47.362Z,7.27
2018-10-01T03:04:52.540Z,7.28
2018-10-01T03:07:58.671Z,7.32
2018-10-01T03:11:03.681Z,7.33
2018-10-01T03:14:10.416Z,7.35
2018-10-01T03:17:16.219Z,7.33
2018-10-01T03:20:21.244Z,7.35
2018-10-01T03:23:26.272Z,7.41
2018-10-01T03:26:32.437Z,7.48
2018-10-01T03:29:38.600Z,7.45
2018-10-01T03:32:44.370Z,7.54
2018-10-01T03:35:50.237Z,7.63
2018-10-01T03:38:55.309Z,7.65
2018-10-01T03:42:00.363Z,7.72
2018-10-01T03:45:05.414Z,7.75
2018-10-01T03:48:10.419Z,7.77
2018-10-01T03:51:16.458Z,7.82
2018-10-01T03:54:21.606Z,7.84
2018-10-01T03:57:26.602Z,7.80
2018-10-01T04:00:32.693Z,7.79
2018-10-01T04:03:37.693Z,7.79
2018-10-01T04:06:42.694Z,7.78
2018-10-01T04:09:47.961Z,7.79
2018-10-01T04:12:53.793Z,7.76
2018-10-01T04:15:58.807Z,7.79
2018-10-01T04:19:05.509Z,7.81
2018-10-01T04:22:11.385Z,7.87
2018-10-01T04:25:18.054Z,7.92
2018-10-01T04:28:24.116Z,7.92
2018-10-01T04:31:29.110Z,7.99
2018-10-01T04:34:34.813Z,7.93
2018-10-01T04:37:40.496Z,7.93
2018-10-01T04:40:46.237Z,7.91
2018-10-01T04:43:51.293Z,7.94
2018-10-01T04:46:57.413Z,7.96
2018-10-01T04:53:20.908Z,7.98
2018-10-01T04:56:27.256Z,7.95
2018-10-01T04:59:33.081Z,7.95
2018-10-01T05:02:38.401Z,7.95
2018-10-01T05:05:44.557Z,7.95
2018-10-01T05:08:49.738Z,8.06
2018-10-01T05:15:02.934Z,8.05
2018-10-01T05:18:07.930Z,8.13
2018-10-01T05:21:13.225Z,8.12
2018-10-01T05:24:19.378Z,8.20
2018-10-01T05:27:24.858Z,8.30
2018-10-01T05:30:30.571Z,8.40
2018-10-01T05:33:37.336Z,8.48
2018-10-01T05:36:45.585Z,8.51
2018-10-01T05:39:51.699Z,8.52
2018-10-01T05:42:57.986Z,8.50
2018-10-01T05:46:03.796Z,8.52
2018-10-01T05:49:10.885Z,8.51
2018-10-01T05:52:19.017Z,8.50
2018-10-01T05:55:30.388Z,8.49
2018-10-01T05:58:38.819Z,8.58
2018-10-01T06:01:49.120Z,8.62
2018-10-01T06:04:57.046Z,8.73
2018-10-01T06:08:06.572Z,8.83
2018-10-01T06:11:18.813Z,8.90
2018-10-01T06:14:33.979Z,8.95
2018-10-01T06:17:46.238Z,9.00
2018-10-01T06:20:54.057Z,9.06
2018-10-01T06:24:05.930Z,9.12
2018-10-01T06:27:23.915Z,9.17
2018-10-01T06:30:33.927Z,9.20
2018-10-01T06:33:45.382Z,9.36
2018-10-01T06:36:53.532Z,9.41
2018-10-01T06:40:03.537Z,9.54
2018-10-01T06:43:14.630Z,9.68
2018-10-01T06:46:22.142Z,9.81
2018-10-01T06:49:29.472Z,9.95
2018-10-01T06:52:39.830Z,10.08
2018-10-01T06:55:48.881Z,10.18
2018-10-01T06:58:59.052Z,10.30
2018-10-01T07:02:07.384Z,10.41
2018-10-01T07:05:17.670Z,10.54
2018-10-01T07:08:26.721Z,10.58
2018-10-01T07:11:38.126Z,10.71
2018-10-01T07:14:51.166Z,10.79
2018-10-01T07:18:01.053Z,10.93
2018-10-01T07:21:10.213Z,11.01
2018-10-01T07:24:20.558Z,11.12
2018-10-01T07:27:29.565Z,11.25
2018-10-01T07:30:40.389Z,11.26
2018-10-01T07:33:49.459Z,11.39
2018-10-01T07:36:57.614Z,11.50
2018-10-01T07:40:02.658Z,11.66
2018-10-01T07:43:08.582Z,11.77
2018-10-01T07:46:13.870Z,11.90
2018-10-01T07:49:18.825Z,12.03
2018-10-01T07:52:24.466Z,12.10
2018-10-01T07:55:29.461Z,12.15
2018-10-01T07:58:35.634Z,12.11
2018-10-01T08:01:40.638Z,12.26
2018-10-01T08:04:46.733Z,12.49
2018-10-01T08:07:51.771Z,12.57
2018-10-01T08:10:56.867Z,12.67
2018-10-01T08:14:04.210Z,12.72
2018-10-01T08:17:09.161Z,12.55
2018-10-01T08:20:14.306Z,12.56
2018-10-01T08:23:24.145Z,12.59
2018-10-01T08:26:34.301Z,12.73
2018-10-01T08:29:42.508Z,12.89
2018-10-01T08:32:52.118Z,13.06
2018-10-01T08:36:00.513Z,13.09
2018-10-01T08:39:13.268Z,13.19
2018-10-01T08:42:23.376Z,12.96
2018-10-01T08:45:33.390Z,12.94
2018-10-01T08:48:51.704Z,12.85
2018-10-01T08:52:11.924Z,12.98
2018-10-01T08:55:19.408Z,12.72
2018-10-01T08:58:31.835Z,12.88
2018-10-01T09:01:44.239Z,13.26
2018-10-01T09:04:57.179Z,13.40
2018-10-01T09:08:09.272Z,13.34
2018-10-01T09:11:17.417Z,13.34
2018-10-01T09:14:22.736Z,13.42
2018-10-01T09:17:27.779Z,13.40
2018-10-01T09:20:33.113Z,13.53
2018-10-01T09:23:42.189Z,13.80
2018-10-01T09:26:51.543Z,13.87
2018-10-01T09:30:01.815Z,14.19
2018-10-01T09:33:12.129Z,14.26
2018-10-01T09:36:24.501Z,14.68
2018-10-01T09:39:46.799Z,14.99
2018-10-01T09:42:58.414Z,14.63
2018-10-01T09:46:15.464Z,14.41
2018-10-01T09:49:21.883Z,14.39
2018-10-01T09:52:31.602Z,14.16
2018-10-01T09:55:40.889Z,14.07
2018-10-01T09:58:52.031Z,13.98
2018-10-01T10:02:06.284Z,13.98
2018-10-01T10:05:18.708Z,14.19
2018-10-01T10:08:30.183Z,14.51
2018-10-01T10:11:37.830Z,14.52
2018-10-01T10:14:47.598Z,14.37
2018-10-01T10:17:55.772Z,13.74
2018-10-01T10:21:05.543Z,13.61
2018-10-01T10:24:15.194Z,13.66
2018-10-01T10:27:24.706Z,13.78
2018-10-01T10:30:39.521Z,13.77
2018-10-01T10:33:49.775Z,13.82
2018-10-01T10:36:59.710Z,13.61
2018-10-01T10:40:09.995Z,13.58
2018-10-01T10:43:20.762Z,13.43
2018-10-01T10:46:28.355Z,13.67
2018-10-01T10:49:37.828Z,14.01
2018-10-01T10:52:50.858Z,14.20
2018-10-01T11:08:07.986Z,15.16
2018-10-01T11:11:17.784Z,15.50
2018-10-01T11:14:27.831Z,15.99
2018-10-01T11:17:39.744Z,16.22
2018-10-01T11:20:50.222Z,16.61
2018-10-01T11:24:03.483Z,16.40
2018-10-01T11:27:19.023Z,16.48
2018-10-01T11:30:36.502Z,16.67
2018-10-01T11:33:48.584Z,16.23
2018-10-01T11:36:56.912Z,16.16
2018-10-01T11:40:07.963Z,15.91
2018-10-01T11:43:18.438Z,15.87
2018-10-01T11:46:26.041Z,15.92
2018-10-01T11:49:38.022Z,16.03
2018-10-01T11:52:48.390Z,15.90
2018-10-01T11:55:56.891Z,15.62
2018-10-01T11:59:05.687Z,15.47
2018-10-01T12:02:16.474Z,15.36
2018-10-01T12:05:27.501Z,15.08
2018-10-01T12:08:37.713Z,14.93
2018-10-01T12:15:09.137Z,14.84
2018-10-01T12:18:19.754Z,14.92
2018-10-01T12:21:28.536Z,14.85
2018-10-01T12:24:46.234Z,14.87
2018-10-01T12:27:56.679Z,14.86
2018-10-01T12:31:06.814Z,15.05
2018-10-01T12:34:19.206Z,15.21
2018-10-01T12:37:28.687Z,15.61
2018-10-01T12:40:36.622Z,16.22
2018-10-01T12:43:46.730Z,16.98
2018-10-01T12:46:57.326Z,17.49
2018-10-01T12:50:09.330Z,17.48
2018-10-01T12:53:20.173Z,17.46
2018-10-01T12:56:33.445Z,17.32
2018-10-01T12:59:43.062Z,17.30
2018-10-01T13:02:50.090Z,17.78
2018-10-01T13:06:02.851Z,18.09
2018-10-01T13:09:12.460Z,17.92
2018-10-01T13:12:19.059Z,17.84
2018-10-01T13:15:34.420Z,17.62
2018-10-01T13:18:44.794Z,17.60
2018-10-01T13:21:52.591Z,17.44
2018-10-01T13:25:16.311Z,17.38
2018-10-01T13:28:27.017Z,18.00
2018-10-01T13:31:35.847Z,17.71
2018-10-01T13:34:43.956Z,17.93
2018-10-01T13:37:51.828Z,17.92
2018-10-01T13:41:01.103Z,18.20
2018-10-01T13:44:13.340Z,17.91
2018-10-01T13:47:25.387Z,17.59
2018-10-01T13:50:37.984Z,17.48
2018-10-01T13:54:08.178Z,17.36
2018-10-01T13:57:19.158Z,16.84
2018-10-01T14:00:27.809Z,16.55
2018-10-01T14:03:38.495Z,16.53
2018-10-01T14:06:50.282Z,16.46
2018-10-01T14:10:02.245Z,16.65
2018-10-01T14:13:11.479Z,16.65
2018-10-01T14:16:22.785Z,17.27
2018-10-01T14:19:32.246Z,17.44
2018-10-01T14:22:42.709Z,17.85
2018-10-01T14:25:52.202Z,17.11
2018-10-01T14:29:01.984Z,16.35
2018-10-01T14:32:11.039Z,16.27
2018-10-01T14:35:18.961Z,15.87
2018-10-01T14:38:28.660Z,15.11
2018-10-01T14:41:37.475Z,14.79
2018-10-01T14:44:50.251Z,14.29
2018-10-01T14:48:01.137Z,14.05
2018-10-01T14:51:11.335Z,13.96
2018-10-01T14:54:21.450Z,13.98
2018-10-01T14:57:32.682Z,14.13
2018-10-01T15:00:45.530Z,14.26
2018-10-01T15:03:53.266Z,14.20
2018-10-01T15:07:01.965Z,14.05
2018-10-01T15:10:09.907Z,13.96
2018-10-01T15:13:24.556Z,13.75
2018-10-01T15:16:36.788Z,13.78
2018-10-01T15:19:46.649Z,13.73
2018-10-01T15:23:00.449Z,13.53
2018-10-01T15:26:09.445Z,13.50
2018-10-01T15:29:14.465Z,13.29
2018-10-01T15:32:20.834Z,12.89
2018-10-01T15:35:25.985Z,12.75
2018-10-01T15:38:35.870Z,12.53
2018-10-01T15:41:40.915Z,12.45
2018-10-01T15:44:47.172Z,12.43
2018-10-01T15:47:53.561Z,12.35
2018-10-01T15:50:59.645Z,12.00
2018-10-01T15:54:05.775Z,12.18
2018-10-01T15:57:11.578Z,12.12
2018-10-01T16:00:16.563Z,12.05
2018-10-01T16:03:22.460Z,11.98
2018-10-01T16:06:28.274Z,11.94
2018-10-01T16:09:33.652Z,11.99
2018-10-01T16:12:39.529Z,11.77
2018-10-01T16:15:45.248Z,11.69
2018-10-01T16:18:50.367Z,11.81
2018-10-01T16:21:56.517Z,11.82
2018-10-01T16:25:01.538Z,11.90
2018-10-01T16:28:11.013Z,11.87
2018-10-01T16:31:23.500Z,11.93
2018-10-01T16:34:29.563Z,11.93
2018-10-01T16:37:40.872Z,11.93
2018-10-01T16:40:48.159Z,11.87
2018-10-01T16:43:56.504Z,11.78
2018-10-01T16:47:03.129Z,11.61
2018-10-01T16:50:10.785Z,11.65
2018-10-01T16:53:18.212Z,11.70
2018-10-01T16:56:25.629Z,11.69
2018-10-01T16:59:32.335Z,11.62
2018-10-01T17:02:38.797Z,11.66
2018-10-01T17:05:44.240Z,11.54
2018-10-01T17:08:52.132Z,11.51
2018-10-01T17:11:57.147Z,11.52
2018-10-01T17:15:02.219Z,11.57
2018-10-01T17:18:07.265Z,11.64
2018-10-01T17:21:13.675Z,11.58
2018-10-01T17:24:20.994Z,11.59
2018-10-01T17:27:26.069Z,11.58
2018-10-01T17:30:32.090Z,11.55
2018-10-01T17:33:37.124Z,11.52
2018-10-01T17:36:44.606Z,11.45
2018-10-01T17:40:26.174Z,11.45
2018-10-01T17:43:56.190Z,11.36
2018-10-01T17:47:13.089Z,11.31
2018-10-01T17:50:18.672Z,11.26
2018-10-01T17:53:25.968Z,11.18
2018-10-01T17:56:31.793Z,11.07
2018-10-01T17:59:38.031Z,11.06
2018-10-01T18:02:43.081Z,11.07
2018-10-01T18:05:48.936Z,11.03
2018-10-01T18:08:54.807Z,11.00
2018-10-01T18:12:00.991Z,10.93
2018-10-01T18:15:07.284Z,10.85
2018-10-01T18:18:12.483Z,10.71
2018-10-01T18:21:18.100Z,10.68
2018-10-01T18:24:23.205Z,10.70
2018-10-01T18:27:28.932Z,10.62
2018-10-01T18:30:34.151Z,10.57
2018-10-01T18:33:40.030Z,10.55
2018-10-01T18:36:45.264Z,10.45
2018-10-01T18:39:50.418Z,10.29
2018-10-01T18:42:56.525Z,10.28
2018-10-01T18:46:02.793Z,10.23
2018-10-01T18:49:07.829Z,10.19
2018-10-01T18:52:14.137Z,10.18
2018-10-01T18:55:19.890Z,10.14
2018-10-01T18:58:25.645Z,10.14
2018-10-01T19:01:35.940Z,10.14
2018-10-01T19:04:41.057Z,10.23
2018-10-01T19:07:48.016Z,10.24
2018-10-01T19:10:54.143Z,10.28
2018-10-01T19:14:02.834Z,10.22
2018-10-01T19:17:09.008Z,10.23
2018-10-01T19:20:15.189Z,10.23
2018-10-01T19:23:21.329Z,10.19
2018-10-01T19:26:27.598Z,10.08
2018-10-01T19:29:32.746Z,9.98
2018-10-01T19:32:39.500Z,9.95
2018-10-01T19:35:45.916Z,9.84
2018-10-01T19:38:51.114Z,9.77
2018-10-01T19:41:57.098Z,9.72
2018-10-01T19:45:03.711Z,9.64
2018-10-01T19:48:09.991Z,9.61
2018-10-01T19:51:18.026Z,9.42
2018-10-01T19:54:31.411Z,9.53
2018-10-01T19:57:37.569Z,9.52
2018-10-01T20:00:43.758Z,9.51
2018-10-01T20:03:49.997Z,9.50
2018-10-01T20:06:55.150Z,9.57
2018-10-01T20:10:05.830Z,9.64
2018-10-01T20:13:15.200Z,9.59
2018-10-01T20:16:24.424Z,9.61
2018-10-01T20:19:30.882Z,9.74
2018-10-01T20:22:36.609Z,9.78
2018-10-01T20:25:42.810Z,9.79
2018-10-01T20:28:49.232Z,9.87
2018-10-01T20:31:54.820Z,9.79
2018-10-01T20:35:00.666Z,9.85
2018-10-01T20:38:05.576Z,9.92
2018-10-01T20:41:11.410Z,9.83
2018-10-01T20:44:17.387Z,9.76
2018-10-01T20:47:23.033Z,9.81
2018-10-01T20:50:29.302Z,9.86
2018-10-01T20:53:35.186Z,9.90
2018-10-01T20:56:41.389Z,9.78
2018-10-01T20:59:47.156Z,9.70
2018-10-01T21:02:53.953Z,9.48
2018-10-01T21:05:58.974Z,9.52
2018-10-01T21:09:07.701Z,9.43
2018-10-01T21:15:05.159Z,9.18
2018-10-01T21:18:11.877Z,9.16
2018-10-01T21:21:17.747Z,9.20
2018-10-01T21:24:23.393Z,9.17
2018-10-01T21:27:30.676Z,9.15
2018-10-01T21:30:35.728Z,9.12
2018-10-01T21:33:40.833Z,9.08
2018-10-01T21:36:47.047Z,9.02
2018-10-01T21:40:02.573Z,8.90
2018-10-01T21:43:07.578Z,8.80
2018-10-01T21:46:13.784Z,8.71
2018-10-01T21:49:18.825Z,8.70
2018-10-01T21:52:25.657Z,8.67
2018-10-01T21:55:31.658Z,8.67
2018-10-01T21:58:37.721Z,8.58
2018-10-01T22:01:42.724Z,8.46
2018-10-01T22:04:48.443Z,8.40
2018-10-01T22:07:54.253Z,8.40
2018-10-01T22:11:00.335Z,8.30
2018-10-01T22:14:06.555Z,8.25
2018-10-01T22:17:12.337Z,8.11
2018-10-01T22:20:18.206Z,8.06
2018-10-01T22:23:23.189Z,8.06
2018-10-01T22:26:28.991Z,8.00
2018-10-01T22:29:34.666Z,7.95
2018-10-01T22:32:40.797Z,7.92
2018-10-01T22:35:48.115Z,7.82
2018-10-01T22:38:53.297Z,7.76
2018-10-01T22:41:59.076Z,7.72
2018-10-01T22:45:04.697Z,7.61
2018-10-01T22:48:10.824Z,7.55
2018-10-01T22:51:16.634Z,7.48
2018-10-01T22:54:22.625Z,7.44
2018-10-01T22:57:27.634Z,7.35
2018-10-01T23:00:37.477Z,7.25
2018-10-01T23:03:42.713Z,7.15
2018-10-01T23:06:48.905Z,7.10
2018-10-01T23:09:53.924Z,7.04
2018-10-01T23:13:00.033Z,7.01
2018-10-01T23:16:06.098Z,6.92
2018-10-01T23:19:12.050Z,6.86
2018-10-01T23:22:18.082Z,6.75
2018-10-01T23:25:23.728Z,6.69
2018-10-01T23:28:29.643Z,6.57
2018-10-01T23:31:35.651Z,6.39
2018-10-01T23:34:41.813Z,6.24
2018-10-01T23:37:46.817Z,6.22
2018-10-01T23:40:52.621Z,6.14
2018-10-01T23:43:58.754Z,5.95
2018-10-01T23:47:04.948Z,5.75
2018-10-01T23:50:11.353Z,5.73
2018-10-01T23:53:17.242Z,5.73
2018-10-01T23:56:22.302Z,5.69
2018-10-01T23:59:27.344Z,5.69
